createdAt,value
2022-08-29T00:02:35.495Z,95534.53
2022-08-29T00:05:25.242Z,95539.28
2022-08-29T00:08:11.718Z,95536.91
2022-08-29T00:11:02.482Z,95544.00
2022-08-29T00:13:48.994Z,95548.34
2022-08-29T00:16:35.446Z,95552.72
2022-08-29T00:19:21.838Z,95559.81
2022-08-29T00:22:07.955Z,95558.25
2022-08-29T00:24:53.993Z,95555.09
2022-08-29T00:27:40.599Z,95551.16
2022-08-29T00:30:31.338Z,95543.25
2022-08-29T00:33:17.930Z,95538.50
2022-08-29T00:36:04.480Z,95536.13
2022-08-29T00:38:50.474Z,95529.03
2022-08-29T00:41:37.771Z,95535.72
2022-08-29T00:44:24.078Z,95528.25
2022-08-29T00:47:12.292Z,95526.66
2022-08-29T00:49:58.680Z,95525.88
2022-08-29T00:52:47.073Z,95529.84
2022-08-29T00:55:34.883Z,95528.25
2022-08-29T00:58:41.111Z,95532.97
2022-08-29T01:01:30.594Z,95533.38
2022-08-29T01:04:24.038Z,95534.56
2022-08-29T01:07:14.634Z,95542.47
2022-08-29T01:10:13.338Z,95544.03
2022-08-29T01:13:07.688Z,95537.69
2022-08-29T01:15:59.525Z,95542.84
2022-08-29T01:18:47.961Z,95545.63
2022-08-29T01:21:36.867Z,95541.66
2022-08-29T01:24:27.085Z,95543.22
2022-08-29T01:27:14.364Z,95542.06
2022-08-29T01:30:00.186Z,95540.09
2022-08-29T01:32:46.275Z,95533.75
2022-08-29T01:35:33.694Z,95532.97
2022-08-29T01:38:36.678Z,95541.66
2022-08-29T01:41:22.850Z,95540.47
2022-08-29T01:44:12.109Z,95543.22
2022-08-29T01:47:02.707Z,95544.78
2022-08-29T01:49:49.304Z,95551.50
2022-08-29T01:52:36.134Z,95551.09
2022-08-29T01:55:22.189Z,95561.72
2022-08-29T01:58:09.171Z,95557.38
2022-08-29T02:00:58.553Z,95557.41
2022-08-29T02:03:45.486Z,95564.50
2022-08-29T02:06:31.405Z,95556.94
2022-08-29T02:09:20.770Z,95554.19
2022-08-29T02:12:07.276Z,95560.50
2022-08-29T02:14:53.148Z,95555.00
2022-08-29T02:17:39.286Z,95560.50
2022-08-29T02:20:25.109Z,95562.06
2022-08-29T02:23:29.833Z,95565.22
2022-08-29T02:26:17.328Z,95556.16
2022-08-29T02:29:03.666Z,95565.22
2022-08-29T02:31:49.724Z,95564.81
2022-08-29T02:34:36.703Z,95562.06
2022-08-29T02:37:22.534Z,95559.69
2022-08-29T02:40:09.143Z,95563.63
2022-08-29T02:42:55.257Z,95565.19
2022-08-29T02:45:41.914Z,95576.63
2022-08-29T02:48:28.114Z,95569.91
2022-08-29T02:51:23.246Z,95566.75
2022-08-29T02:54:09.774Z,95565.19
2022-08-29T02:56:55.604Z,95565.94
2022-08-29T02:59:41.570Z,95563.97
2022-08-29T03:02:27.936Z,95576.97
2022-08-29T03:05:15.451Z,95581.72
2022-08-29T03:08:03.112Z,95576.19
2022-08-29T03:10:49.341Z,95582.50
2022-08-29T03:13:35.737Z,95587.22
2022-08-29T03:16:21.600Z,95591.16
2022-08-29T03:19:07.478Z,95591.16
2022-08-29T03:21:53.250Z,95593.13
2022-08-29T03:24:39.374Z,95595.09
2022-08-29T03:27:25.493Z,95599.03
2022-08-29T03:30:14.078Z,95603.38
2022-08-29T03:33:00.104Z,95600.59
2022-08-29T03:35:45.975Z,95614.81
2022-08-29T03:38:31.722Z,95616.38
2022-08-29T03:41:22.673Z,95620.31
2022-08-29T03:44:08.883Z,95615.97
2022-08-29T03:46:55.053Z,95617.19
2022-08-29T03:49:40.961Z,95617.19
2022-08-29T03:52:26.955Z,95616.38
2022-08-29T03:55:14.325Z,95629.78
2022-08-29T03:58:00.229Z,95617.19
2022-08-29T04:00:47.047Z,95621.91
2022-08-29T04:03:33.237Z,95627.81
2022-08-29T04:06:19.851Z,95623.88
2022-08-29T04:09:05.723Z,95626.25
2022-08-29T04:11:52.681Z,95627.41
2022-08-29T04:14:39.661Z,95627.41
2022-08-29T04:17:25.828Z,95628.97
2022-08-29T04:20:13.071Z,95629.75
2022-08-29T04:22:59.842Z,95640.78
2022-08-29T04:25:45.723Z,95636.81
2022-08-29T04:28:31.808Z,95634.47
2022-08-29T04:31:20.380Z,95636.81
2022-08-29T04:34:07.315Z,95637.59
2022-08-29T04:36:53.502Z,95639.56
2022-08-29T04:39:41.813Z,95645.88
2022-08-29T04:42:28.082Z,95636.78
2022-08-29T04:45:18.126Z,95643.06
2022-08-29T04:48:04.337Z,95637.19
2022-08-29T04:50:56.464Z,95643.06
2022-08-29T04:53:43.150Z,95650.97
2022-08-29T04:56:28.820Z,95648.59
2022-08-29T04:59:16.646Z,95654.09
2022-08-29T05:02:02.443Z,95659.25
2022-08-29T05:04:52.546Z,95655.28
2022-08-29T05:07:38.536Z,95658.00
2022-08-29T05:10:24.626Z,95656.78
2022-08-29T05:13:10.645Z,95654.03
2022-08-29T05:15:56.512Z,95659.56
2022-08-29T05:18:44.430Z,95667.44
2022-08-29T05:21:35.497Z,95665.84
2022-08-29T05:24:22.364Z,95671.38
2022-08-29T05:27:10.288Z,95669.03
2022-08-29T05:29:56.324Z,95663.50
2022-08-29T05:32:42.877Z,95666.66
2022-08-29T05:35:28.768Z,95665.09
2022-08-29T05:38:14.947Z,95663.09
2022-08-29T05:41:01.802Z,95668.25
2022-08-29T05:43:47.674Z,95670.19
2022-08-29T05:46:33.756Z,95664.31
2022-08-29T05:49:20.152Z,95674.97
2022-08-29T05:52:06.783Z,95672.19
2022-08-29T05:54:52.741Z,95671.03
2022-08-29T05:57:38.698Z,95674.56
2022-08-29T06:00:25.097Z,95671.44
2022-08-29T06:03:11.967Z,95678.16
2022-08-29T06:05:58.134Z,95678.94
2022-08-29T06:08:44.171Z,95673.88
2022-08-29T06:11:32.479Z,95675.84
2022-08-29T06:14:18.374Z,95686.50
2022-08-29T06:17:05.640Z,95687.28
2022-08-29T06:19:54.733Z,95684.16
2022-08-29T06:22:40.883Z,95683.75
2022-08-29T06:25:39.636Z,95685.69
2022-08-29T06:28:31.344Z,95689.28
2022-08-29T06:31:22.929Z,95683.72
2022-08-29T06:34:09.858Z,95692.84
2022-08-29T06:36:55.479Z,95686.56
2022-08-29T06:39:41.320Z,95684.97
2022-08-29T06:42:28.658Z,95683.44
2022-08-29T06:45:14.617Z,95690.53
2022-08-29T06:48:06.914Z,95689.38
2022-08-29T06:51:08.671Z,95691.38
2022-08-29T06:53:54.556Z,95697.38
2022-08-29T06:56:42.376Z,95688.31
2022-08-29T06:59:28.348Z,95690.66
2022-08-29T07:02:14.439Z,95693.84
2022-08-29T07:05:00.408Z,95700.56
2022-08-29T07:07:46.450Z,95692.28
2022-08-29T07:10:32.547Z,95697.06
2022-08-29T07:13:18.651Z,95693.91
2022-08-29T07:16:08.558Z,95690.75
2022-08-29T07:18:54.581Z,95701.03
2022-08-29T07:21:40.525Z,95699.47
2022-08-29T07:24:26.772Z,95697.88
2022-08-29T07:27:14.048Z,95702.63
2022-08-29T07:30:02.599Z,95693.94
2022-08-29T07:32:48.928Z,95708.19
2022-08-29T07:35:34.923Z,95703.44
2022-08-29T07:38:21.561Z,95697.16
2022-08-29T07:41:09.681Z,95703.06
2022-08-29T07:43:55.629Z,95696.75
2022-08-29T07:46:42.299Z,95695.63
2022-08-29T07:49:40.593Z,95700.34
2022-08-29T07:52:26.888Z,95699.59
2022-08-29T07:55:12.870Z,95699.56
2022-08-29T07:57:59.040Z,95690.13
2022-08-29T08:00:45.388Z,95690.91
2022-08-29T08:03:32.963Z,95686.16
2022-08-29T08:06:23.579Z,95684.59
2022-08-29T08:09:10.252Z,95679.88
2022-08-29T08:11:57.708Z,95679.84
2022-08-29T08:14:43.713Z,95684.59
2022-08-29T08:17:29.952Z,95672.75
2022-08-29T08:20:15.804Z,95670.78
2022-08-29T08:23:02.544Z,95672.72
2022-08-29T08:25:48.392Z,95671.97
2022-08-29T08:28:34.349Z,95676.66
2022-08-29T08:31:20.665Z,95667.59
2022-08-29T08:34:07.414Z,95670.00
